KMIB/MIB METAR and TAF weather

Enter ICAO airport designator
Station Type Date Time Source
KMIB METAR 2020/12/06 00:56 UTC NOAA

KMIB 060056Z AUTO 27005KT 9SM CLR M04/M07 A3017 RMK AO2 SLP245 T10421068 $


Station Type Date Time Source
KMIB Decoded METAR 2020/12/06 00:56 UTC NOAA

Minot Air Force Base, ND, United States (KMIB) 48-25N 101-21W
Dec 05, 2020 - 07:56 PM EST / 2020.12.06 0056 UTC
Wind: from the W (270 degrees) at 6 MPH (5 KT):0
Visibility: 9 mile(s):0
Sky conditions: clear
Temperature: 24.4 F (-4.2 C)
Windchill: 17 F (-8 C):1
Dew Point: 19.8 F (-6.8 C)
Relative Humidity: 82%
Pressure (altimeter): 30.17 in. Hg (1021 hPa)
ob: KMIB 060056Z AUTO 27005KT 9SM CLR M04/M07 A3017 RMK AO2 SLP245 T10421068
cycle: 1

Station Type Date Time Source
KMIB TAF 2020/12/05 04:54 UTC NOAA

TAF TAF
AMD KMIB 050445Z 0504/0607 30009KT 9999 SKC QNH3011INS
BECMG 0517/0518 27012KT 9999 FEW120 SCT150 QNH3016INS
BECMG 0600/0601 25009KT 9999 SCT130 QNH3011INS TX05/0521Z TNM02/0512Z LAST NO
AMDS AFT 0505 NEXT 0709

Example: see airport list